sensor_id;sensor_type;location;lat;lon;timestamp;temperature;humidity
63771;DHT22;60282;43.862;18.430;2022-12-08T00:01:09;8.20;99.90
63771;DHT22;60282;43.862;18.430;2022-12-08T00:03:36;8.10;99.90
63771;DHT22;60282;43.862;18.430;2022-12-08T00:06:03;10.80;99.90
63771;DHT22;60282;43.862;18.430;2022-12-08T00:08:48;8.10;99.90
63771;DHT22;60282;43.862;18.430;2022-12-08T00:11:32;8.10;99.90
63771;DHT22;60282;43.862;18.430;2022-12-08T00:16:25;8.00;99.90
63771;DHT22;60282;43.862;18.430;2022-12-08T00:18:50;8.00;99.90
63771;DHT22;60282;43.862;18.430;2022-12-08T00:21:16;8.00;99.90
63771;DHT22;60282;43.862;18.430;2022-12-08T00:23:42;8.00;99.90
63771;DHT22;60282;43.862;18.430;2022-12-08T00:26:08;7.90;99.90
63771;DHT22;60282;43.862;18.430;2022-12-08T00:28:34;7.90;99.90
63771;DHT22;60282;43.862;18.430;2022-12-08T00:31:07;7.90;99.90
63771;DHT22;60282;43.862;18.430;2022-12-08T00:33:33;7.90;99.90
63771;DHT22;60282;43.862;18.430;2022-12-08T00:36:07;7.90;99.90
63771;DHT22;60282;43.862;18.430;2022-12-08T00:38:32;7.90;99.90
63771;DHT22;60282;43.862;18.430;2022-12-08T00:40:58;7.90;99.90
63771;DHT22;60282;43.862;18.430;2022-12-08T00:43:24;7.90;99.90
63771;DHT22;60282;43.862;18.430;2022-12-08T00:45:51;7.90;99.90
63771;DHT22;60282;43.862;18.430;2022-12-08T00:48:17;7.90;99.90
63771;DHT22;60282;43.862;18.430;2022-12-08T00:50:42;7.90;99.90
63771;DHT22;60282;43.862;18.430;2022-12-08T00:53:08;7.90;99.90
63771;DHT22;60282;43.862;18.430;2022-12-08T00:55:34;7.90;99.90
63771;DHT22;60282;43.862;18.430;2022-12-08T00:58:00;7.90;99.90
63771;DHT22;60282;43.862;18.430;2022-12-08T01:00:25;8.00;99.90
63771;DHT22;60282;43.862;18.430;2022-12-08T01:02:51;8.00;99.90
63771;DHT22;60282;43.862;18.430;2022-12-08T01:05:17;8.00;99.90
63771;DHT22;60282;43.862;18.430;2022-12-08T01:07:42;8.00;99.90
63771;DHT22;60282;43.862;18.430;2022-12-08T01:10:08;8.00;99.90
63771;DHT22;60282;43.862;18.430;2022-12-08T01:12:34;7.90;99.90
63771;DHT22;60282;43.862;18.430;2022-12-08T01:15:00;7.90;99.90
63771;DHT22;60282;43.862;18.430;2022-12-08T01:17:26;7.90;99.90
63771;DHT22;60282;43.862;18.430;2022-12-08T01:19:51;7.80;99.90
63771;DHT22;60282;43.862;18.430;2022-12-08T01:22:17;7.70;99.90
63771;DHT22;60282;43.862;18.430;2022-12-08T01:24:43;7.60;99.90
63771;DHT22;60282;43.862;18.430;2022-12-08T01:27:08;7.60;99.90
63771;DHT22;60282;43.862;18.430;2022-12-08T01:32:00;7.60;99.90
63771;DHT22;60282;43.862;18.430;2022-12-08T01:34:26;7.50;99.90
63771;DHT22;60282;43.862;18.430;2022-12-08T01:36:52;5.80;99.90
63771;DHT22;60282;43.862;18.430;2022-12-08T01:39:18;7.40;99.90
63771;DHT22;60282;43.862;18.430;2022-12-08T01:41:45;7.40;99.90
63771;DHT22;60282;43.862;18.430;2022-12-08T01:46:38;7.40;99.90
63771;DHT22;60282;43.862;18.430;2022-12-08T01:49:12;7.40;99.90
63771;DHT22;60282;43.862;18.430;2022-12-08T01:54:12;7.40;99.90
63771;DHT22;60282;43.862;18.430;2022-12-08T01:56:50;7.30;99.90
63771;DHT22;60282;43.862;18.430;2022-12-08T01:59:18;7.30;99.90
63771;DHT22;60282;43.862;18.430;2022-12-08T02:01:44;7.10;99.90
63771;DHT22;60282;43.862;18.430;2022-12-08T02:06:39;7.10;99.90
63771;DHT22;60282;43.862;18.430;2022-12-08T02:09:07;7.00;99.90
63771;DHT22;60282;43.862;18.430;2022-12-08T02:11:33;6.90;99.90
63771;DHT22;60282;43.862;18.430;2022-12-08T02:14:00;6.90;99.90
63771;DHT22;60282;43.862;18.430;2022-12-08T02:25:29;6.90;99.90
63771;DHT22;60282;43.862;18.430;2022-12-08T02:30:49;6.80;99.90
63771;DHT22;60282;43.862;18.430;2022-12-08T02:36:14;6.70;99.90
63771;DHT22;60282;43.862;18.430;2022-12-08T02:41:41;6.60;99.90
63771;DHT22;60282;43.862;18.430;2022-12-08T02:44:19;6.50;99.90
63771;DHT22;60282;43.862;18.430;2022-12-08T02:47:17;6.40;99.90
63771;DHT22;60282;43.862;18.430;2022-12-08T02:49:41;6.40;99.90
63771;DHT22;60282;43.862;18.430;2022-12-08T02:54:54;6.40;99.90
63771;DHT22;60282;43.862;18.430;2022-12-08T03:10:37;6.60;99.90
63771;DHT22;60282;43.862;18.430;2022-12-08T03:13:11;6.50;99.90
63771;DHT22;60282;43.862;18.430;2022-12-08T03:15:37;6.40;99.90
63771;DHT22;60282;43.862;18.430;2022-12-08T03:18:05;6.40;99.90
63771;DHT22;60282;43.862;18.430;2022-12-08T03:20:33;6.20;99.90
63771;DHT22;60282;43.862;18.430;2022-12-08T03:23:02;6.20;99.90
63771;DHT22;60282;43.862;18.430;2022-12-08T03:25:31;6.20;99.90
63771;DHT22;60282;43.862;18.430;2022-12-08T03:28:01;6.20;99.90
63771;DHT22;60282;43.862;18.430;2022-12-08T03:30:28;6.20;99.90
63771;DHT22;60282;43.862;18.430;2022-12-08T03:33:03;6.10;99.90
63771;DHT22;60282;43.862;18.430;2022-12-08T03:35:35;6.10;99.90
63771;DHT22;60282;43.862;18.430;2022-12-08T03:38:08;6.00;99.90
63771;DHT22;60282;43.862;18.430;2022-12-08T03:40:35;6.10;99.90
63771;DHT22;60282;43.862;18.430;2022-12-08T03:43:01;6.00;99.90
63771;DHT22;60282;43.862;18.430;2022-12-08T03:45:27;6.10;99.90
63771;DHT22;60282;43.862;18.430;2022-12-08T03:47:53;6.00;99.90
63771;DHT22;60282;43.862;18.430;2022-12-08T03:50:19;6.00;99.90
63771;DHT22;60282;43.862;18.430;2022-12-08T03:52:45;6.00;99.90
63771;DHT22;60282;43.862;18.430;2022-12-08T03:55:10;5.80;99.90
63771;DHT22;60282;43.862;18.430;2022-12-08T03:57:36;5.50;99.90
63771;DHT22;60282;43.862;18.430;2022-12-08T04:00:05;5.70;99.90
63771;DHT22;60282;43.862;18.430;2022-12-08T04:02:31;5.70;99.90
63771;DHT22;60282;43.862;18.430;2022-12-08T04:04:57;5.80;99.90
63771;DHT22;60282;43.862;18.430;2022-12-08T04:07:23;5.70;99.90
63771;DHT22;60282;43.862;18.430;2022-12-08T04:09:49;5.70;99.90
63771;DHT22;60282;43.862;18.430;2022-12-08T04:12:14;5.80;99.90
63771;DHT22;60282;43.862;18.430;2022-12-08T04:14:40;5.80;99.90
63771;DHT22;60282;43.862;18.430;2022-12-08T04:17:06;5.80;99.90
63771;DHT22;60282;43.862;18.430;2022-12-08T04:19:32;5.80;99.90
63771;DHT22;60282;43.862;18.430;2022-12-08T04:21:57;5.80;99.90
63771;DHT22;60282;43.862;18.430;2022-12-08T04:24:23;5.80;99.90
63771;DHT22;60282;43.862;18.430;2022-12-08T04:26:49;5.80;99.90
63771;DHT22;60282;43.862;18.430;2022-12-08T04:29:15;5.80;99.90
63771;DHT22;60282;43.862;18.430;2022-12-08T04:31:41;5.90;99.90
63771;DHT22;60282;43.862;18.430;2022-12-08T04:34:07;5.80;99.90
63771;DHT22;60282;43.862;18.430;2022-12-08T04:36:33;5.80;99.90
63771;DHT22;60282;43.862;18.430;2022-12-08T04:38:59;5.80;99.90
63771;DHT22;60282;43.862;18.430;2022-12-08T04:41:24;5.70;99.90
63771;DHT22;60282;43.862;18.430;2022-12-08T04:43:50;5.70;99.90
63771;DHT22;60282;43.862;18.430;2022-12-08T04:46:16;5.70;99.90
63771;DHT22;60282;43.862;18.430;2022-12-08T04:48:41;5.70;99.90
63771;DHT22;60282;43.862;18.430;2022-12-08T04:51:14;5.60;99.90
63771;DHT22;60282;43.862;18.430;2022-12-08T04:53:41;5.60;99.90
63771;DHT22;60282;43.862;18.430;2022-12-08T04:56:15;5.70;99.90
63771;DHT22;60282;43.862;18.430;2022-12-08T04:58:41;4.20;99.90
63771;DHT22;60282;43.862;18.430;2022-12-08T05:01:07;5.70;99.90
63771;DHT22;60282;43.862;18.430;2022-12-08T05:03:33;5.70;99.90
63771;DHT22;60282;43.862;18.430;2022-12-08T05:05:59;5.70;99.90
63771;DHT22;60282;43.862;18.430;2022-12-08T05:08:25;5.70;99.90
63771;DHT22;60282;43.862;18.430;2022-12-08T05:10:51;5.70;99.90
63771;DHT22;60282;43.862;18.430;2022-12-08T05:13:17;5.80;99.90
63771;DHT22;60282;43.862;18.430;2022-12-08T05:15:43;5.90;99.90
63771;DHT22;60282;43.862;18.430;2022-12-08T05:18:09;5.90;99.90
63771;DHT22;60282;43.862;18.430;2022-12-08T05:20:34;5.80;99.90
63771;DHT22;60282;43.862;18.430;2022-12-08T05:23:01;5.80;99.90
63771;DHT22;60282;43.862;18.430;2022-12-08T05:25:27;5.90;99.90
63771;DHT22;60282;43.862;18.430;2022-12-08T05:27:52;6.30;99.90
63771;DHT22;60282;43.862;18.430;2022-12-08T05:30:18;5.80;99.90
63771;DHT22;60282;43.862;18.430;2022-12-08T05:32:44;4.10;99.90
63771;DHT22;60282;43.862;18.430;2022-12-08T05:35:10;5.80;99.90
63771;DHT22;60282;43.862;18.430;2022-12-08T05:37:36;5.80;99.90
63771;DHT22;60282;43.862;18.430;2022-12-08T05:40:02;5.80;99.90
63771;DHT22;60282;43.862;18.430;2022-12-08T05:42:28;5.80;99.90
63771;DHT22;60282;43.862;18.430;2022-12-08T05:44:53;5.70;99.90
63771;DHT22;60282;43.862;18.430;2022-12-08T05:47:19;5.60;99.90
63771;DHT22;60282;43.862;18.430;2022-12-08T05:49:45;5.60;99.90
63771;DHT22;60282;43.862;18.430;2022-12-08T05:52:10;5.40;99.90
63771;DHT22;60282;43.862;18.430;2022-12-08T05:54:36;5.50;99.90
63771;DHT22;60282;43.862;18.430;2022-12-08T05:57:02;5.50;99.90
63771;DHT22;60282;43.862;18.430;2022-12-08T05:59:28;5.50;99.90
63771;DHT22;60282;43.862;18.430;2022-12-08T06:01:54;5.50;99.90
63771;DHT22;60282;43.862;18.430;2022-12-08T06:04:19;4.80;99.90
63771;DHT22;60282;43.862;18.430;2022-12-08T06:06:46;5.60;99.90
63771;DHT22;60282;43.862;18.430;2022-12-08T06:09:12;5.60;99.90
63771;DHT22;60282;43.862;18.430;2022-12-08T06:14:04;5.70;99.90
63771;DHT22;60282;43.862;18.430;2022-12-08T06:16:30;5.70;99.90
63771;DHT22;60282;43.862;18.430;2022-12-08T06:18:56;5.00;99.90
63771;DHT22;60282;43.862;18.430;2022-12-08T06:21:24;5.70;99.90
63771;DHT22;60282;43.862;18.430;2022-12-08T06:26:22;5.80;99.90
63771;DHT22;60282;43.862;18.430;2022-12-08T06:28:49;7.80;99.90
63771;DHT22;60282;43.862;18.430;2022-12-08T06:31:20;5.80;99.90
63771;DHT22;60282;43.862;18.430;2022-12-08T06:33:51;6.00;99.90
63771;DHT22;60282;43.862;18.430;2022-12-08T06:36:22;5.90;99.90
63771;DHT22;60282;43.862;18.430;2022-12-08T06:38:49;6.60;99.90
63771;DHT22;60282;43.862;18.430;2022-12-08T06:41:15;6.00;99.90
63771;DHT22;60282;43.862;18.430;2022-12-08T06:43:41;5.90;99.90
63771;DHT22;60282;43.862;18.430;2022-12-08T06:46:10;5.90;99.90
63771;DHT22;60282;43.862;18.430;2022-12-08T06:48:36;5.90;99.90
63771;DHT22;60282;43.862;18.430;2022-12-08T06:51:11;5.90;99.90
63771;DHT22;60282;43.862;18.430;2022-12-08T06:53:38;5.90;99.90
63771;DHT22;60282;43.862;18.430;2022-12-08T06:56:05;6.10;99.90
63771;DHT22;60282;43.862;18.430;2022-12-08T06:58:31;6.00;99.90
63771;DHT22;60282;43.862;18.430;2022-12-08T07:00:57;7.00;99.90
63771;DHT22;60282;43.862;18.430;2022-12-08T07:03:22;5.40;99.90
63771;DHT22;60282;43.862;18.430;2022-12-08T07:05:49;6.20;99.90
63771;DHT22;60282;43.862;18.430;2022-12-08T07:08:20;6.20;99.90
63771;DHT22;60282;43.862;18.430;2022-12-08T07:10:45;6.30;99.90
63771;DHT22;60282;43.862;18.430;2022-12-08T07:13:11;6.30;99.90
63771;DHT22;60282;43.862;18.430;2022-12-08T07:15:37;6.40;99.90
63771;DHT22;60282;43.862;18.430;2022-12-08T07:18:03;6.40;99.90
63771;DHT22;60282;43.862;18.430;2022-12-08T07:20:31;6.50;99.90
63771;DHT22;60282;43.862;18.430;2022-12-08T07:25:23;6.60;99.90
63771;DHT22;60282;43.862;18.430;2022-12-08T07:30:18;6.60;99.90
63771;DHT22;60282;43.862;18.430;2022-12-08T07:32:44;6.60;99.90
63771;DHT22;60282;43.862;18.430;2022-12-08T07:37:37;6.70;99.90
63771;DHT22;60282;43.862;18.430;2022-12-08T07:40:05;6.70;99.90
63771;DHT22;60282;43.862;18.430;2022-12-08T07:42:31;6.80;99.90
63771;DHT22;60282;43.862;18.430;2022-12-08T07:44:57;6.90;99.90
63771;DHT22;60282;43.862;18.430;2022-12-08T07:47:23;6.90;99.90
63771;DHT22;60282;43.862;18.430;2022-12-08T07:49:49;6.10;99.90
63771;DHT22;60282;43.862;18.430;2022-12-08T07:52:15;7.10;99.90
63771;DHT22;60282;43.862;18.430;2022-12-08T07:54:41;7.20;99.90
63771;DHT22;60282;43.862;18.430;2022-12-08T07:57:07;7.20;99.90
63771;DHT22;60282;43.862;18.430;2022-12-08T07:59:34;7.30;99.90
63771;DHT22;60282;43.862;18.430;2022-12-08T08:02:00;7.30;99.90
63771;DHT22;60282;43.862;18.430;2022-12-08T08:04:26;7.40;99.90
63771;DHT22;60282;43.862;18.430;2022-12-08T08:07:30;7.50;99.90
63771;DHT22;60282;43.862;18.430;2022-12-08T08:09:56;7.60;99.90
63771;DHT22;60282;43.862;18.430;2022-12-08T08:12:22;7.60;99.90
63771;DHT22;60282;43.862;18.430;2022-12-08T08:14:48;6.10;99.90
63771;DHT22;60282;43.862;18.430;2022-12-08T08:17:14;6.00;99.90
63771;DHT22;60282;43.862;18.430;2022-12-08T08:19:40;7.50;99.90
63771;DHT22;60282;43.862;18.430;2022-12-08T08:22:05;7.60;99.90
63771;DHT22;60282;43.862;18.430;2022-12-08T08:24:31;7.60;99.90
63771;DHT22;60282;43.862;18.430;2022-12-08T08:26:57;7.70;99.90
63771;DHT22;60282;43.862;18.430;2022-12-08T08:29:23;7.70;99.90
63771;DHT22;60282;43.862;18.430;2022-12-08T08:31:49;7.80;99.90
63771;DHT22;60282;43.862;18.430;2022-12-08T08:34:15;7.70;99.90
63771;DHT22;60282;43.862;18.430;2022-12-08T08:36:42;7.70;99.90
63771;DHT22;60282;43.862;18.430;2022-12-08T08:39:08;7.60;99.90
63771;DHT22;60282;43.862;18.430;2022-12-08T08:41:33;7.60;99.90
63771;DHT22;60282;43.862;18.430;2022-12-08T08:44:00;6.50;99.90
63771;DHT22;60282;43.862;18.430;2022-12-08T08:46:26;7.60;99.90
63771;DHT22;60282;43.862;18.430;2022-12-08T08:48:51;7.10;99.90
63771;DHT22;60282;43.862;18.430;2022-12-08T08:51:17;7.50;99.90
63771;DHT22;60282;43.862;18.430;2022-12-08T08:53:43;7.50;99.90
63771;DHT22;60282;43.862;18.430;2022-12-08T08:56:13;7.50;99.90
63771;DHT22;60282;43.862;18.430;2022-12-08T08:58:40;7.50;99.90
63771;DHT22;60282;43.862;18.430;2022-12-08T09:01:06;7.40;99.90
63771;DHT22;60282;43.862;18.430;2022-12-08T09:03:34;8.00;99.90
63771;DHT22;60282;43.862;18.430;2022-12-08T09:06:00;7.90;99.90
63771;DHT22;60282;43.862;18.430;2022-12-08T09:08:26;7.90;99.90
63771;DHT22;60282;43.862;18.430;2022-12-08T09:10:52;7.80;99.90
63771;DHT22;60282;43.862;18.430;2022-12-08T09:13:19;7.90;99.90
63771;DHT22;60282;43.862;18.430;2022-12-08T09:15:44;7.90;99.90
63771;DHT22;60282;43.862;18.430;2022-12-08T09:18:10;7.80;99.90
63771;DHT22;60282;43.862;18.430;2022-12-08T09:20:36;7.80;99.90
63771;DHT22;60282;43.862;18.430;2022-12-08T09:23:02;7.80;99.90
63771;DHT22;60282;43.862;18.430;2022-12-08T09:25:28;7.90;99.90
63771;DHT22;60282;43.862;18.430;2022-12-08T09:27:53;7.90;99.90
63771;DHT22;60282;43.862;18.430;2022-12-08T09:30:19;8.00;99.90
63771;DHT22;60282;43.862;18.430;2022-12-08T09:32:45;6.30;99.90
63771;DHT22;60282;43.862;18.430;2022-12-08T09:35:11;8.00;99.90
63771;DHT22;60282;43.862;18.430;2022-12-08T09:37:36;8.10;99.90
63771;DHT22;60282;43.862;18.430;2022-12-08T09:40:03;8.10;99.90
63771;DHT22;60282;43.862;18.430;2022-12-08T09:42:48;8.10;99.90
63771;DHT22;60282;43.862;18.430;2022-12-08T09:45:16;8.10;99.90
63771;DHT22;60282;43.862;18.430;2022-12-08T09:48:07;8.10;99.90
63771;DHT22;60282;43.862;18.430;2022-12-08T09:50:48;8.00;99.90
63771;DHT22;60282;43.862;18.430;2022-12-08T09:53:46;7.50;99.90
63771;DHT22;60282;43.862;18.430;2022-12-08T09:56:30;8.00;99.90
63771;DHT22;60282;43.862;18.430;2022-12-08T09:59:26;8.00;99.90
63771;DHT22;60282;43.862;18.430;2022-12-08T10:01:54;8.00;99.90
63771;DHT22;60282;43.862;18.430;2022-12-08T10:04:26;8.00;99.90
63771;DHT22;60282;43.862;18.430;2022-12-08T10:07:04;8.00;99.90
63771;DHT22;60282;43.862;18.430;2022-12-08T10:09:51;8.20;99.90
63771;DHT22;60282;43.862;18.430;2022-12-08T10:18:30;7.90;99.90
63771;DHT22;60282;43.862;18.430;2022-12-08T10:21:10;7.90;99.90
63771;DHT22;60282;43.862;18.430;2022-12-08T10:23:38;7.90;99.90
63771;DHT22;60282;43.862;18.430;2022-12-08T10:26:19;7.90;99.90
63771;DHT22;60282;43.862;18.430;2022-12-08T10:28:47;7.80;99.90
63771;DHT22;60282;43.862;18.430;2022-12-08T10:31:17;7.80;99.90
63771;DHT22;60282;43.862;18.430;2022-12-08T10:33:46;7.70;99.90
63771;DHT22;60282;43.862;18.430;2022-12-08T10:38:41;7.70;99.90
63771;DHT22;60282;43.862;18.430;2022-12-08T10:43:58;7.70;99.90
63771;DHT22;60282;43.862;18.430;2022-12-08T10:46:26;7.50;99.90
63771;DHT22;60282;43.862;18.430;2022-12-08T10:49:09;7.60;99.90
63771;DHT22;60282;43.862;18.430;2022-12-08T10:51:40;7.50;99.90
63771;DHT22;60282;43.862;18.430;2022-12-08T10:54:31;7.60;99.90
63771;DHT22;60282;43.862;18.430;2022-12-08T10:56:57;7.50;99.90
63771;DHT22;60282;43.862;18.430;2022-12-08T10:59:24;7.50;99.90
63771;DHT22;60282;43.862;18.430;2022-12-08T11:01:52;7.40;99.90
63771;DHT22;60282;43.862;18.430;2022-12-08T11:04:33;7.70;99.90
63771;DHT22;60282;43.862;18.430;2022-12-08T11:06:59;7.40;99.90
63771;DHT22;60282;43.862;18.430;2022-12-08T11:09:38;7.50;99.90
63771;DHT22;60282;43.862;18.430;2022-12-08T11:12:13;7.50;99.90
63771;DHT22;60282;43.862;18.430;2022-12-08T11:14:45;7.50;99.90
63771;DHT22;60282;43.862;18.430;2022-12-08T11:17:15;7.90;99.90
63771;DHT22;60282;43.862;18.430;2022-12-08T11:19:56;7.50;99.90
63771;DHT22;60282;43.862;18.430;2022-12-08T11:22:39;7.50;99.90
63771;DHT22;60282;43.862;18.430;2022-12-08T11:27:39;7.40;99.90
63771;DHT22;60282;43.862;18.430;2022-12-08T11:30:14;7.40;99.90
63771;DHT22;60282;43.862;18.430;2022-12-08T11:32:46;7.40;99.90
63771;DHT22;60282;43.862;18.430;2022-12-08T11:35:26;7.30;99.90
63771;DHT22;60282;43.862;18.430;2022-12-08T11:37:57;7.30;99.90
63771;DHT22;60282;43.862;18.430;2022-12-08T11:40:34;7.20;99.90
63771;DHT22;60282;43.862;18.430;2022-12-08T11:43:25;7.20;99.90
63771;DHT22;60282;43.862;18.430;2022-12-08T11:45:57;7.00;99.90
63771;DHT22;60282;43.862;18.430;2022-12-08T11:48:35;7.00;99.90
63771;DHT22;60282;43.862;18.430;2022-12-08T11:56:24;6.90;99.90
63771;DHT22;60282;43.862;18.430;2022-12-08T11:58:58;6.90;99.90
63771;DHT22;60282;43.862;18.430;2022-12-08T12:01:26;7.00;99.90
63771;DHT22;60282;43.862;18.430;2022-12-08T12:06:41;7.20;99.90
63771;DHT22;60282;43.862;18.430;2022-12-08T12:18:07;7.50;99.90
63771;DHT22;60282;43.862;18.430;2022-12-08T12:20:45;7.50;99.90
63771;DHT22;60282;43.862;18.430;2022-12-08T12:23:36;7.40;99.90
63771;DHT22;60282;43.862;18.430;2022-12-08T12:26:06;7.40;99.90
63771;DHT22;60282;43.862;18.430;2022-12-08T12:31:39;7.50;99.90
63771;DHT22;60282;43.862;18.430;2022-12-08T12:34:07;7.50;99.90
63771;DHT22;60282;43.862;18.430;2022-12-08T12:39:22;7.60;99.90
63771;DHT22;60282;43.862;18.430;2022-12-08T12:45:29;7.50;99.90
63771;DHT22;60282;43.862;18.430;2022-12-08T12:53:00;7.40;99.90
63771;DHT22;60282;43.862;18.430;2022-12-08T13:06:03;7.60;99.90
63771;DHT22;60282;43.862;18.430;2022-12-08T13:08:29;7.60;99.90
63771;DHT22;60282;43.862;18.430;2022-12-08T13:11:01;7.50;99.90
63771;DHT22;60282;43.862;18.430;2022-12-08T13:16:11;7.30;99.90
63771;DHT22;60282;43.862;18.430;2022-12-08T13:18:42;7.40;99.90
63771;DHT22;60282;43.862;18.430;2022-12-08T13:21:13;7.50;99.90
63771;DHT22;60282;43.862;18.430;2022-12-08T13:23:42;7.50;99.90
63771;DHT22;60282;43.862;18.430;2022-12-08T13:26:16;7.60;99.90
63771;DHT22;60282;43.862;18.430;2022-12-08T13:29:03;7.70;99.90
63771;DHT22;60282;43.862;18.430;2022-12-08T13:31:37;7.90;99.90
63771;DHT22;60282;43.862;18.430;2022-12-08T13:34:16;8.10;99.90
63771;DHT22;60282;43.862;18.430;2022-12-08T13:39:27;8.50;99.90
63771;DHT22;60282;43.862;18.430;2022-12-08T13:42:02;8.50;99.90
63771;DHT22;60282;43.862;18.430;2022-12-08T13:44:56;8.50;99.90
63771;DHT22;60282;43.862;18.430;2022-12-08T13:47:34;8.60;99.90
63771;DHT22;60282;43.862;18.430;2022-12-08T13:55:19;9.00;99.90
63771;DHT22;60282;43.862;18.430;2022-12-08T13:57:50;9.20;99.90
63771;DHT22;60282;43.862;18.430;2022-12-08T14:00:19;9.30;99.90
63771;DHT22;60282;43.862;18.430;2022-12-08T14:02:48;9.30;99.90
63771;DHT22;60282;43.862;18.430;2022-12-08T14:05:15;9.70;99.90
63771;DHT22;60282;43.862;18.430;2022-12-08T14:07:42;10.00;99.90
63771;DHT22;60282;43.862;18.430;2022-12-08T14:10:28;10.20;99.90
63771;DHT22;60282;43.862;18.430;2022-12-08T14:13:02;10.30;99.90
63771;DHT22;60282;43.862;18.430;2022-12-08T14:15:31;10.30;99.90
63771;DHT22;60282;43.862;18.430;2022-12-08T14:17:57;10.20;99.90
63771;DHT22;60282;43.862;18.430;2022-12-08T14:20:29;10.30;99.90
63771;DHT22;60282;43.862;18.430;2022-12-08T14:22:56;10.40;99.90
63771;DHT22;60282;43.862;18.430;2022-12-08T14:25:25;10.50;99.90
63771;DHT22;60282;43.862;18.430;2022-12-08T14:27:57;10.50;99.90
63771;DHT22;60282;43.862;18.430;2022-12-08T14:30:30;10.50;99.90
63771;DHT22;60282;43.862;18.430;2022-12-08T14:32:58;10.50;99.90
63771;DHT22;60282;43.862;18.430;2022-12-08T14:35:28;10.50;99.90
63771;DHT22;60282;43.862;18.430;2022-12-08T14:38:02;10.40;99.90
63771;DHT22;60282;43.862;18.430;2022-12-08T14:40:43;10.20;99.90
63771;DHT22;60282;43.862;18.430;2022-12-08T14:53:54;9.60;99.90
63771;DHT22;60282;43.862;18.430;2022-12-08T14:56:26;9.50;99.90
63771;DHT22;60282;43.862;18.430;2022-12-08T14:59:05;9.40;99.90
63771;DHT22;60282;43.862;18.430;2022-12-08T15:01:33;9.20;99.90
63771;DHT22;60282;43.862;18.430;2022-12-08T15:04:07;9.10;99.90
63771;DHT22;60282;43.862;18.430;2022-12-08T15:06:34;9.00;99.90
63771;DHT22;60282;43.862;18.430;2022-12-08T15:09:16;8.90;99.90
63771;DHT22;60282;43.862;18.430;2022-12-08T15:11:59;8.80;99.90
63771;DHT22;60282;43.862;18.430;2022-12-08T15:14:36;8.70;99.90
63771;DHT22;60282;43.862;18.430;2022-12-08T15:19:57;5.50;99.90
63771;DHT22;60282;43.862;18.430;2022-12-08T15:22:23;8.40;99.90
63771;DHT22;60282;43.862;18.430;2022-12-08T15:24:49;8.30;99.90
63771;DHT22;60282;43.862;18.430;2022-12-08T15:27:19;8.30;99.90
63771;DHT22;60282;43.862;18.430;2022-12-08T15:29:46;8.00;99.90
63771;DHT22;60282;43.862;18.430;2022-12-08T15:32:16;8.10;99.90
63771;DHT22;60282;43.862;18.430;2022-12-08T15:34:42;8.00;99.90
63771;DHT22;60282;43.862;18.430;2022-12-08T15:37:18;7.90;99.90
63771;DHT22;60282;43.862;18.430;2022-12-08T15:39:45;7.80;99.90
63771;DHT22;60282;43.862;18.430;2022-12-08T15:42:11;7.80;99.90
63771;DHT22;60282;43.862;18.430;2022-12-08T15:44:38;7.70;99.90
63771;DHT22;60282;43.862;18.430;2022-12-08T15:47:04;7.60;99.90
63771;DHT22;60282;43.862;18.430;2022-12-08T15:49:31;7.60;99.90
63771;DHT22;60282;43.862;18.430;2022-12-08T15:51:57;7.60;99.90
63771;DHT22;60282;43.862;18.430;2022-12-08T15:54:22;7.50;99.90
63771;DHT22;60282;43.862;18.430;2022-12-08T15:56:52;7.30;99.90
63771;DHT22;60282;43.862;18.430;2022-12-08T15:59:22;7.30;99.90
63771;DHT22;60282;43.862;18.430;2022-12-08T16:01:49;7.20;99.90
63771;DHT22;60282;43.862;18.430;2022-12-08T16:04:18;7.10;99.90
63771;DHT22;60282;43.862;18.430;2022-12-08T16:06:47;7.00;99.90
63771;DHT22;60282;43.862;18.430;2022-12-08T16:09:36;7.00;99.90
63771;DHT22;60282;43.862;18.430;2022-12-08T16:12:04;6.90;99.90
63771;DHT22;60282;43.862;18.430;2022-12-08T16:14:48;6.20;99.90
63771;DHT22;60282;43.862;18.430;2022-12-08T16:17:17;6.80;99.90
63771;DHT22;60282;43.862;18.430;2022-12-08T16:19:44;6.80;99.90
63771;DHT22;60282;43.862;18.430;2022-12-08T16:22:21;6.80;99.90
63771;DHT22;60282;43.862;18.430;2022-12-08T16:24:49;6.80;99.90
63771;DHT22;60282;43.862;18.430;2022-12-08T16:27:33;6.70;99.90
63771;DHT22;60282;43.862;18.430;2022-12-08T16:29:59;6.70;99.90
63771;DHT22;60282;43.862;18.430;2022-12-08T16:32:26;6.80;99.90
63771;DHT22;60282;43.862;18.430;2022-12-08T16:34:53;6.90;99.90
63771;DHT22;60282;43.862;18.430;2022-12-08T16:37:22;6.90;99.90
63771;DHT22;60282;43.862;18.430;2022-12-08T16:39:51;6.90;99.90
63771;DHT22;60282;43.862;18.430;2022-12-08T16:42:26;6.90;99.90
63771;DHT22;60282;43.862;18.430;2022-12-08T16:47:36;7.00;99.90
63771;DHT22;60282;43.862;18.430;2022-12-08T16:50:07;6.80;99.90
63771;DHT22;60282;43.862;18.430;2022-12-08T16:52:33;6.80;99.90
63771;DHT22;60282;43.862;18.430;2022-12-08T16:57:25;6.80;99.90
63771;DHT22;60282;43.862;18.430;2022-12-08T16:59:51;6.80;99.90
63771;DHT22;60282;43.862;18.430;2022-12-08T17:02:17;6.90;99.90
63771;DHT22;60282;43.862;18.430;2022-12-08T17:04:43;6.90;99.90
63771;DHT22;60282;43.862;18.430;2022-12-08T17:07:08;6.90;99.90
63771;DHT22;60282;43.862;18.430;2022-12-08T17:09:34;6.90;99.90
63771;DHT22;60282;43.862;18.430;2022-12-08T17:12:00;6.80;99.90
63771;DHT22;60282;43.862;18.430;2022-12-08T17:16:52;6.70;99.90
63771;DHT22;60282;43.862;18.430;2022-12-08T17:19:18;6.60;99.90
63771;DHT22;60282;43.862;18.430;2022-12-08T17:21:44;6.60;99.90
63771;DHT22;60282;43.862;18.430;2022-12-08T17:24:10;6.70;99.90
63771;DHT22;60282;43.862;18.430;2022-12-08T17:26:35;6.70;99.90
63771;DHT22;60282;43.862;18.430;2022-12-08T17:29:02;6.60;99.90
63771;DHT22;60282;43.862;18.430;2022-12-08T17:31:30;6.60;99.90
63771;DHT22;60282;43.862;18.430;2022-12-08T17:34:04;7.00;99.90
63771;DHT22;60282;43.862;18.430;2022-12-08T17:36:31;6.60;99.90
63771;DHT22;60282;43.862;18.430;2022-12-08T17:38:58;6.60;99.90
63771;DHT22;60282;43.862;18.430;2022-12-08T17:41:24;6.60;99.90
63771;DHT22;60282;43.862;18.430;2022-12-08T17:43:50;6.60;99.90
63771;DHT22;60282;43.862;18.430;2022-12-08T17:46:17;6.60;99.90
63771;DHT22;60282;43.862;18.430;2022-12-08T17:48:43;6.60;99.90
63771;DHT22;60282;43.862;18.430;2022-12-08T17:53:36;6.60;99.90
63771;DHT22;60282;43.862;18.430;2022-12-08T18:00:54;6.50;99.90
63771;DHT22;60282;43.862;18.430;2022-12-08T18:03:19;6.50;99.90
63771;DHT22;60282;43.862;18.430;2022-12-08T18:05:45;6.40;99.90
63771;DHT22;60282;43.862;18.430;2022-12-08T18:08:11;6.40;99.90
63771;DHT22;60282;43.862;18.430;2022-12-08T18:10:37;6.40;99.90
63771;DHT22;60282;43.862;18.430;2022-12-08T18:13:05;6.50;99.90
63771;DHT22;60282;43.862;18.430;2022-12-08T18:15:31;6.40;99.90